Aérodrome :
LOGIN :

S'inscrire | Disclaimer

   EN    FR    IT 

 










Légende :    VFR   VFR Marginal   IFR   IFR Intensif   IFR Très Intensif
Visi : 
Plafond : 
>= 8 km
>= 3000ft
5 à 8 km
1000 à 3000 ft
1500m à 5 km
500 à 1000 ft
800 à 1500m
200 à 500 ft
< 800m
< 200 ft
Symboles :   Orages  Brouillard  Fortes neiges  Fortes précipitations  Vent > 20 kt
SIGMETs :   Divers  Orages  Givrage  Turbulence  Onde Orograph.  Cendres Volcan.







- Altitude de l'aérodrome : 459 ft
- Code IATA : CER
- Voir les cartes d'approche


LFRC - Cherbourg / Maupertus

DERNIER METAR :
  • 011730Z AUTO 24025KT 9999 SCT019 BKN025 OVC039 09/06 Q1000 TEMPO SHRA BECMG 25025G35KT

METARs EXPIRÉS :
  • 011700Z AUTO 24023G37KT 9999 BKN018 BKN024 BKN032 09/06 Q1000 TEMPO SHRA
  • 011630Z AUTO 24023KT 9999 BKN019 BKN027 OVC035 10/07 Q1000 TEMPO SHRA BECMG 25025G35KT
  • 011600Z AUTO 24023KT 9999 OVC014 10/07 Q0999 BECMG 25025G35KT BKN020
  • 011530Z AUTO 24022G33KT 9999 OVC013 10/08 Q0999 BECMG BKN020
  • 011500Z AUTO 24022G35KT 9999 OVC014 10/08 Q0999 BECMG BKN020

TAF TAF LFRC
Valide du 01 à 15h jusqu'au 02 à 00h UTC


011400Z 0115/0124 25025G35KT 9999 BKN020
PROB30
TEMPO 0118/0124 5000 SHRA
Pas de NOTAMs connus pour ce terrain.
1 SIGMET publié pour la FIR Brest (LFRR) :
 
Turbulence forte
LFRR SIGMET 2 VALID 011600/012000 LFPW
LFRR BREST FIR/UIR SEV TURB OBS WI N4715 W00015 - N4630 W00015 - N4630 W00130 - N4530 W00145 - N4715 W00400 - N4745 W00115 SFC/FL040 STNR NC=



MET'MAP, la Météo Aéronautique d'un coup d'oeil ! - Copyright ORBIFLY Décembre 2007 - Disclaimer

ORBIFLY MET'MAP TEAM :

Programmation & Développement : Alexandra Zaïnal
Conception & Développement : Baudouin d'Aumeries
Co-Programmation & Développement : Marc-Olivier Méhu
Soutien technique & logistique : Manuel Goepfert

Contact : metmap@orbifly.com




SOURCES & CREDITS :

   NOAA